Time;durP1;ratioP1;P1;durP2;ratioP2;P2;SDS_P1;SDS_P2;PMS_P1;PMS_P2;Temp;Humidity;BMP_temperature;BMP_pressure;BME280_temperature;BME280_humidity;BME280_pressure;Samples;Min_cycle;Max_cycle;Signal;HPM_P1;HPM_P2
2024/01/27 00:01:11;;;;;;;0.10;0.10;;;;;;;;;;5086021;28;20027;-74
2024/01/27 00:03:36;;;;;;;0.10;0.10;;;;;;;;;;5083412;28;20027;-75
2024/01/27 00:06:02;;;;;;;0.10;0.10;;;;;;;;;;5082628;28;20666;-75
2024/01/27 00:08:28;;;;;;;0.13;0.13;;;;;;;;;;5081530;28;20358;-73
2024/01/27 00:10:53;;;;;;;0.40;0.40;;;;;;;;;;5084392;28;20020;-74
2024/01/27 00:13:19;;;;;;;0.95;0.95;;;;;;;;;;5086095;28;20479;-74
2024/01/27 00:15:44;;;;;;;0.50;0.50;;;;;;;;;;5089797;28;20414;-75
2024/01/27 00:18:10;;;;;;;0.20;0.20;;;;;;;;;;5068663;28;20517;-75
2024/01/27 00:20:37;;;;;;;1.00;1.00;;;;;;;;;;5081595;28;20024;-75
2024/01/27 00:23:03;;;;;;;0.10;0.10;;;;;;;;;;5091298;28;20036;-74
2024/01/27 00:25:29;;;;;;;0.10;0.10;;;;;;;;;;5084969;28;20037;-75
2024/01/27 00:27:54;;;;;;;0.10;0.10;;;;;;;;;;5073168;28;20035;-76
2024/01/27 00:30:20;;;;;;;0.15;0.15;;;;;;;;;;5072269;28;20027;-75
2024/01/27 00:32:46;;;;;;;0.10;0.10;;;;;;;;;;5089607;28;20076;-74
2024/01/27 00:35:14;;;;;;;6.50;6.10;;;;;;;;;;5071261;28;20099;-75
2024/01/27 00:37:43;;;;;;;1.45;1.45;;;;;;;;;;5058611;28;20079;-75
2024/01/27 00:40:11;;;;;;;0.10;0.10;;;;;;;;;;5068384;28;20032;-75
2024/01/27 00:42:37;;;;;;;0.10;0.10;;;;;;;;;;5069073;28;20029;-74
2024/01/27 00:45:06;;;;;;;0.98;0.98;;;;;;;;;;5070848;28;20032;-73
2024/01/27 00:47:32;;;;;;;0.40;0.40;;;;;;;;;;5069735;28;20029;-74
2024/01/27 00:49:58;;;;;;;1.50;1.50;;;;;;;;;;5070303;28;20021;-75
2024/01/27 00:52:23;;;;;;;0.20;0.20;;;;;;;;;;5069608;28;20127;-75
2024/01/27 00:54:49;;;;;;;0.10;0.10;;;;;;;;;;5070718;28;20025;-75
2024/01/27 00:57:16;;;;;;;0.10;0.10;;;;;;;;;;5070475;28;20025;-76
2024/01/27 00:59:41;;;;;;;0.10;0.10;;;;;;;;;;5069480;28;20109;-75
2024/01/27 01:02:07;;;;;;;0.10;0.10;;;;;;;;;;5070019;28;20056;-74
2024/01/27 01:04:33;;;;;;;0.20;0.20;;;;;;;;;;5069592;28;20383;-74
2024/01/27 01:06:58;;;;;;;0.22;0.22;;;;;;;;;;5070388;28;20099;-74
2024/01/27 01:09:24;;;;;;;0.20;0.20;;;;;;;;;;5069230;28;20040;-74
2024/01/27 01:11:49;;;;;;;0.10;0.10;;;;;;;;;;5070382;28;20062;-77
2024/01/27 01:14:16;;;;;;;0.10;0.10;;;;;;;;;;5068875;28;20476;-74
2024/01/27 01:16:42;;;;;;;0.10;0.10;;;;;;;;;;5070059;28;20028;-73
2024/01/27 01:19:08;;;;;;;0.17;0.17;;;;;;;;;;5070059;28;20095;-74
2024/01/27 01:21:33;;;;;;;0.10;0.10;;;;;;;;;;5070217;28;20033;-74
2024/01/27 01:23:59;;;;;;;0.10;0.10;;;;;;;;;;5069802;28;20012;-73
2024/01/27 01:26:25;;;;;;;0.10;0.10;;;;;;;;;;5069007;28;20059;-75
2024/01/27 01:28:51;;;;;;;0.10;0.10;;;;;;;;;;5070120;28;20036;-74
2024/01/27 01:31:16;;;;;;;0.10;0.10;;;;;;;;;;5071560;28;20031;-74
2024/01/27 01:33:42;;;;;;;0.10;0.10;;;;;;;;;;5073513;28;20028;-74
2024/01/27 01:36:08;;;;;;;0.20;0.20;;;;;;;;;;5080396;28;20044;-76
2024/01/27 01:38:34;;;;;;;0.10;0.10;;;;;;;;;;5093827;28;20506;-75
2024/01/27 01:40:59;;;;;;;0.10;0.10;;;;;;;;;;5093927;28;20023;-77
2024/01/27 01:43:25;;;;;;;1.00;1.00;;;;;;;;;;5093671;28;20028;-76
2024/01/27 01:45:53;;;;;;;0.10;0.10;;;;;;;;;;5093743;28;20027;-76
2024/01/27 01:48:19;;;;;;;0.10;0.10;;;;;;;;;;5093659;28;20475;-75
2024/01/27 01:50:45;;;;;;;0.10;0.10;;;;;;;;;;5075977;28;20127;-76
2024/01/27 01:53:12;;;;;;;0.10;0.10;;;;;;;;;;5093449;28;20107;-75
2024/01/27 01:55:37;;;;;;;0.65;0.65;;;;;;;;;;5093424;28;20024;-75
2024/01/27 01:58:03;;;;;;;0.10;0.10;;;;;;;;;;5093590;28;20097;-76
2024/01/27 02:00:29;;;;;;;0.10;0.10;;;;;;;;;;5093702;28;20417;-75
2024/01/27 02:02:54;;;;;;;0.13;0.13;;;;;;;;;;5093469;28;20068;-76
2024/01/27 02:05:20;;;;;;;0.10;0.10;;;;;;;;;;5093629;28;20081;-75
2024/01/27 02:07:45;;;;;;;1.05;1.05;;;;;;;;;;5093579;28;20081;-75
2024/01/27 02:10:15;;;;;;;0.20;0.20;;;;;;;;;;5093479;28;20032;-76
2024/01/27 02:12:42;;;;;;;0.10;0.10;;;;;;;;;;5093550;28;20016;-75
2024/01/27 02:15:12;;;;;;;1.25;1.20;;;;;;;;;;5093408;28;20522;-75
2024/01/27 02:17:38;;;;;;;0.80;0.80;;;;;;;;;;5093567;28;20452;-74
2024/01/27 02:20:05;;;;;;;0.20;0.20;;;;;;;;;;5093590;28;20035;-76
2024/01/27 02:22:32;;;;;;;0.10;0.10;;;;;;;;;;5093446;28;20028;-75
2024/01/27 02:24:58;;;;;;;0.20;0.20;;;;;;;;;;5075353;28;20055;-77
2024/01/27 02:27:23;;;;;;;1.15;1.08;;;;;;;;;;5058783;28;20032;-76
2024/01/27 02:29:49;;;;;;;0.77;0.77;;;;;;;;;;5093013;28;20038;-76
2024/01/27 02:32:14;;;;;;;0.10;0.10;;;;;;;;;;5093201;28;20020;-74
2024/01/27 02:34:40;;;;;;;0.38;0.38;;;;;;;;;;5093182;28;20048;-75
2024/01/27 02:37:05;;;;;;;0.10;0.10;;;;;;;;;;5093148;28;20048;-75
2024/01/27 02:39:31;;;;;;;0.10;0.10;;;;;;;;;;5093792;28;20034;-74
2024/01/27 02:41:56;;;;;;;0.10;0.10;;;;;;;;;;5093146;28;20081;-74
2024/01/27 02:44:22;;;;;;;0.10;0.10;;;;;;;;;;5075058;28;20043;-75
2024/01/27 02:46:48;;;;;;;0.13;0.13;;;;;;;;;;5093358;28;20028;-76
2024/01/27 02:49:13;;;;;;;0.28;0.25;;;;;;;;;;5093694;28;20036;-75
2024/01/27 02:51:39;;;;;;;0.65;0.65;;;;;;;;;;5092950;28;20020;-75
2024/01/27 02:54:04;;;;;;;0.10;0.10;;;;;;;;;;5092969;28;20040;-75
2024/01/27 02:56:30;;;;;;;0.10;0.10;;;;;;;;;;5093078;28;20020;-75
2024/01/27 02:58:55;;;;;;;0.10;0.10;;;;;;;;;;5093075;28;20028;-74
2024/01/27 03:01:21;;;;;;;0.10;0.10;;;;;;;;;;5093041;28;20379;-75
2024/01/27 03:03:46;;;;;;;0.10;0.10;;;;;;;;;;5093010;28;20597;-74
2024/01/27 03:06:12;;;;;;;0.10;0.10;;;;;;;;;;5095566;28;20025;-74
2024/01/27 03:08:37;;;;;;;0.10;0.10;;;;;;;;;;5078688;28;20099;-74
2024/01/27 03:11:03;;;;;;;0.10;0.10;;;;;;;;;;5096592;28;20032;-75
2024/01/27 03:13:29;;;;;;;0.50;0.50;;;;;;;;;;5096496;28;20051;-75
2024/01/27 03:15:55;;;;;;;0.10;0.10;;;;;;;;;;5097050;28;20024;-77
2024/01/27 03:18:21;;;;;;;0.10;0.10;;;;;;;;;;5096723;28;20475;-76
2024/01/27 03:20:46;;;;;;;0.10;0.10;;;;;;;;;;5096507;28;20024;-75
2024/01/27 03:23:12;;;;;;;0.10;0.10;;;;;;;;;;5096987;28;20035;-76
2024/01/27 03:25:38;;;;;;;0.10;0.10;;;;;;;;;;5096795;28;20484;-76
2024/01/27 03:28:03;;;;;;;0.10;0.10;;;;;;;;;;5078067;28;20036;-76
2024/01/27 03:30:29;;;;;;;0.10;0.10;;;;;;;;;;5096202;28;20020;-76
2024/01/27 03:32:55;;;;;;;0.65;0.65;;;;;;;;;;5096085;28;20119;-75
2024/01/27 03:35:20;;;;;;;0.10;0.10;;;;;;;;;;5096415;28;20028;-75
2024/01/27 03:37:46;;;;;;;0.63;0.63;;;;;;;;;;5096475;28;20448;-75
2024/01/27 03:40:11;;;;;;;0.20;0.20;;;;;;;;;;5096211;28;20028;-75
2024/01/27 03:42:37;;;;;;;0.20;0.20;;;;;;;;;;5078023;28;20072;-75
2024/01/27 03:45:03;;;;;;;0.10;0.10;;;;;;;;;;5095870;28;20433;-75
2024/01/27 03:47:28;;;;;;;0.70;0.70;;;;;;;;;;5095928;28;20024;-76
2024/01/27 03:49:54;;;;;;;1.10;1.00;;;;;;;;;;5096013;28;20020;-75
2024/01/27 03:52:20;;;;;;;0.30;0.30;;;;;;;;;;5095884;28;20069;-76
2024/01/27 03:54:45;;;;;;;5.90;5.55;;;;;;;;;;5095847;28;20479;-75
2024/01/27 03:57:11;;;;;;;0.10;0.10;;;;;;;;;;5095978;28;20030;-74
2024/01/27 03:59:36;;;;;;;0.10;0.10;;;;;;;;;;5095695;28;20067;-75
2024/01/27 04:02:02;;;;;;;0.30;0.30;;;;;;;;;;5094181;28;20031;-75
2024/01/27 04:04:27;;;;;;;0.45;0.45;;;;;;;;;;5071305;28;20064;-74
2024/01/27 04:06:53;;;;;;;1.85;1.85;;;;;;;;;;5071622;28;20025;-74
2024/01/27 04:09:18;;;;;;;0.22;0.22;;;;;;;;;;5071215;28;20078;-74
2024/01/27 04:11:44;;;;;;;1.50;1.40;;;;;;;;;;5053399;28;20024;-74
2024/01/27 04:14:10;;;;;;;1.40;1.35;;;;;;;;;;5071339;28;20048;-75
2024/01/27 04:16:35;;;;;;;0.10;0.10;;;;;;;;;;5070467;28;20060;-75
2024/01/27 04:19:01;;;;;;;0.10;0.10;;;;;;;;;;5071089;28;20107;-75
2024/01/27 04:21:26;;;;;;;0.20;0.20;;;;;;;;;;5071145;28;20074;-76
2024/01/27 04:23:52;;;;;;;0.20;0.20;;;;;;;;;;5071128;28;20044;-74
2024/01/27 04:26:17;;;;;;;0.10;0.10;;;;;;;;;;5070697;28;20062;-74
2024/01/27 04:28:43;;;;;;;0.10;0.10;;;;;;;;;;5070990;28;20107;-75
2024/01/27 04:31:09;;;;;;;0.30;0.30;;;;;;;;;;5071073;28;20020;-75
2024/01/27 04:33:34;;;;;;;0.10;0.10;;;;;;;;;;5070890;28;20063;-73
2024/01/27 04:36:00;;;;;;;0.10;0.10;;;;;;;;;;5070434;28;20048;-75
2024/01/27 04:38:25;;;;;;;0.38;0.38;;;;;;;;;;5070604;28;20024;-74
2024/01/27 04:40:51;;;;;;;0.20;0.20;;;;;;;;;;5070799;28;20036;-74
2024/01/27 04:43:17;;;;;;;0.10;0.10;;;;;;;;;;5070570;28;20115;-74
2024/01/27 04:45:43;;;;;;;0.10;0.10;;;;;;;;;;5070709;28;20261;-74
2024/01/27 04:48:09;;;;;;;0.22;0.22;;;;;;;;;;5052387;28;20602;-75
2024/01/27 04:50:34;;;;;;;5.00;4.80;;;;;;;;;;5070950;28;20043;-73
2024/01/27 04:53:00;;;;;;;0.30;0.30;;;;;;;;;;5070684;28;20105;-73
2024/01/27 04:55:26;;;;;;;0.10;0.10;;;;;;;;;;5070607;28;20028;-73
2024/01/27 04:57:52;;;;;;;0.10;0.10;;;;;;;;;;5070360;28;20123;-73
2024/01/27 05:00:17;;;;;;;0.13;0.13;;;;;;;;;;5070251;28;20039;-75
2024/01/27 05:02:43;;;;;;;0.10;0.10;;;;;;;;;;5070466;28;20464;-75
2024/01/27 05:05:09;;;;;;;0.10;0.10;;;;;;;;;;5052943;28;20085;-73
2024/01/27 05:07:34;;;;;;;0.10;0.10;;;;;;;;;;5070680;28;20120;-74
2024/01/27 05:10:00;;;;;;;0.10;0.10;;;;;;;;;;5070128;28;20431;-74
2024/01/27 05:12:26;;;;;;;0.10;0.10;;;;;;;;;;5069783;28;20032;-73
2024/01/27 05:14:51;;;;;;;0.10;0.10;;;;;;;;;;5070046;28;20153;-74
2024/01/27 05:17:17;;;;;;;0.10;0.10;;;;;;;;;;5070249;28;20048;-74
2024/01/27 05:19:42;;;;;;;0.10;0.10;;;;;;;;;;5070359;28;20031;-74
2024/01/27 05:22:09;;;;;;;0.10;0.10;;;;;;;;;;5068631;28;20074;-75
2024/01/27 05:24:34;;;;;;;0.10;0.10;;;;;;;;;;5069427;28;20476;-74
2024/01/27 05:27:00;;;;;;;0.10;0.10;;;;;;;;;;5070365;28;20032;-75
2024/01/27 05:29:28;;;;;;;0.10;0.10;;;;;;;;;;5070077;28;20090;-75
2024/01/27 05:31:54;;;;;;;0.10;0.10;;;;;;;;;;5052080;28;20024;-74
2024/01/27 05:34:20;;;;;;;0.45;0.45;;;;;;;;;;5069706;28;20113;-76
2024/01/27 05:36:47;;;;;;;1.23;1.17;;;;;;;;;;5051888;28;20219;-75
2024/01/27 05:39:13;;;;;;;1.88;1.40;;;;;;;;;;5069740;28;20028;-76
2024/01/27 05:41:39;;;;;;;0.47;0.47;;;;;;;;;;5069877;28;20085;-76
2024/01/27 05:44:05;;;;;;;0.10;0.10;;;;;;;;;;5069687;28;20029;-75
2024/01/27 05:46:30;;;;;;;0.15;0.15;;;;;;;;;;5069560;28;20009;-76
2024/01/27 05:49:02;;;;;;;0.52;0.52;;;;;;;;;;5069841;28;20467;-75
2024/01/27 05:51:28;;;;;;;0.30;0.30;;;;;;;;;;5069598;28;20090;-75
2024/01/27 05:53:54;;;;;;;0.10;0.10;;;;;;;;;;5069429;28;20040;-76
2024/01/27 05:56:22;;;;;;;0.10;0.10;;;;;;;;;;5069349;28;20028;-76
2024/01/27 05:58:48;;;;;;;0.10;0.10;;;;;;;;;;5069445;28;20021;-75
2024/01/27 06:01:14;;;;;;;0.10;0.10;;;;;;;;;;5069533;28;20041;-75
2024/01/27 06:03:43;;;;;;;0.10;0.10;;;;;;;;;;5079409;28;21021;-76
2024/01/27 06:06:08;;;;;;;0.10;0.10;;;;;;;;;;5071528;28;20165;-75
2024/01/27 06:08:34;;;;;;;0.10;0.10;;;;;;;;;;5089607;28;20446;-75
2024/01/27 06:10:59;;;;;;;0.10;0.10;;;;;;;;;;5087297;28;20030;-75
2024/01/27 06:13:25;;;;;;;0.10;0.10;;;;;;;;;;5089545;28;20036;-75
2024/01/27 06:15:50;;;;;;;0.10;0.10;;;;;;;;;;5089620;28;20510;-76
2024/01/27 06:18:16;;;;;;;0.10;0.10;;;;;;;;;;5089096;28;20407;-76
2024/01/27 06:20:42;;;;;;;0.13;0.13;;;;;;;;;;5089517;28;20059;-77
2024/01/27 06:23:08;;;;;;;0.10;0.10;;;;;;;;;;5089530;28;20031;-75
2024/01/27 06:25:34;;;;;;;0.10;0.10;;;;;;;;;;5089636;28;20039;-76
2024/01/27 06:27:59;;;;;;;0.20;0.20;;;;;;;;;;5089467;28;20111;-76
2024/01/27 06:30:25;;;;;;;0.10;0.10;;;;;;;;;;5088938;28;20035;-77
2024/01/27 06:32:50;;;;;;;0.10;0.10;;;;;;;;;;5089699;28;20440;-74
2024/01/27 06:35:17;;;;;;;0.20;0.20;;;;;;;;;;5070860;28;20032;-75
2024/01/27 06:37:42;;;;;;;0.10;0.10;;;;;;;;;;5089704;28;20048;-74
2024/01/27 06:40:11;;;;;;;0.10;0.10;;;;;;;;;;5072530;28;20031;-74
2024/01/27 06:42:37;;;;;;;0.10;0.10;;;;;;;;;;5075110;28;20028;-75
2024/01/27 06:45:02;;;;;;;0.10;0.10;;;;;;;;;;5093047;28;20039;-74
2024/01/27 06:47:29;;;;;;;0.10;0.10;;;;;;;;;;5093481;28;20039;-75
2024/01/27 06:49:54;;;;;;;0.10;0.10;;;;;;;;;;5074875;28;20021;-74
2024/01/27 06:52:20;;;;;;;0.20;0.20;;;;;;;;;;5092610;28;20425;-75
2024/01/27 06:54:45;;;;;;;0.20;0.20;;;;;;;;;;5092727;28;20024;-75
2024/01/27 06:57:20;;;;;;;0.20;0.20;;;;;;;;;;5092904;28;20425;-75
2024/01/27 06:59:51;;;;;;;0.10;0.10;;;;;;;;;;5092851;28;20116;-76
2024/01/27 07:02:18;;;;;;;0.10;0.10;;;;;;;;;;5090620;28;20429;-74
2024/01/27 07:04:43;;;;;;;0.10;0.10;;;;;;;;;;5085545;28;20474;-76
2024/01/27 07:07:09;;;;;;;0.28;0.28;;;;;;;;;;5083605;28;20106;-76
2024/01/27 07:09:35;;;;;;;0.15;0.15;;;;;;;;;;5093327;28;20024;-77
2024/01/27 07:12:00;;;;;;;0.10;0.10;;;;;;;;;;5087519;28;20475;-76
2024/01/27 07:14:26;;;;;;;0.10;0.10;;;;;;;;;;5082773;28;20160;-75
2024/01/27 07:16:52;;;;;;;0.10;0.10;;;;;;;;;;5092578;28;20024;-75
2024/01/27 07:19:18;;;;;;;0.10;0.10;;;;;;;;;;5089855;28;20020;-75
2024/01/27 07:21:43;;;;;;;0.10;0.10;;;;;;;;;;5065286;28;20486;-76
2024/01/27 07:24:09;;;;;;;0.17;0.17;;;;;;;;;;5092453;28;20036;-75
2024/01/27 07:26:35;;;;;;;0.10;0.10;;;;;;;;;;5092522;28;20442;-75
2024/01/27 07:29:01;;;;;;;0.52;0.52;;;;;;;;;;5090920;28;20157;-76
2024/01/27 07:31:26;;;;;;;0.10;0.10;;;;;;;;;;5086484;28;20380;-75
2024/01/27 07:33:52;;;;;;;0.10;0.10;;;;;;;;;;5086030;28;20483;-74
2024/01/27 07:36:17;;;;;;;0.10;0.10;;;;;;;;;;5092451;28;20052;-75
2024/01/27 07:38:44;;;;;;;0.20;0.20;;;;;;;;;;5073838;28;20149;-76
2024/01/27 07:41:10;;;;;;;0.10;0.10;;;;;;;;;;5088873;28;20111;-76
2024/01/27 07:43:36;;;;;;;0.10;0.10;;;;;;;;;;5092369;28;20107;-75
2024/01/27 07:46:01;;;;;;;0.10;0.10;;;;;;;;;;5092238;28;20048;-76
2024/01/27 07:48:27;;;;;;;0.10;0.10;;;;;;;;;;5091748;28;20031;-76
2024/01/27 07:50:53;;;;;;;0.10;0.10;;;;;;;;;;5073657;28;20839;-73
2024/01/27 07:53:19;;;;;;;0.13;0.13;;;;;;;;;;5089191;28;20036;-76
2024/01/27 07:55:45;;;;;;;0.10;0.10;;;;;;;;;;5092069;28;20375;-75
2024/01/27 07:58:10;;;;;;;0.10;0.10;;;;;;;;;;5091686;28;20034;-76
2024/01/27 08:00:36;;;;;;;0.30;0.30;;;;;;;;;;5089761;28;20016;-75
2024/01/27 08:03:01;;;;;;;0.10;0.10;;;;;;;;;;5077328;28;20430;-75
2024/01/27 08:05:30;;;;;;;0.20;0.20;;;;;;;;;;5071412;28;20026;-74
2024/01/27 08:07:56;;;;;;;0.15;0.15;;;;;;;;;;5053689;28;20098;-74
2024/01/27 08:10:22;;;;;;;0.40;0.40;;;;;;;;;;5053622;28;20460;-74
2024/01/27 08:12:48;;;;;;;0.10;0.10;;;;;;;;;;5071704;28;20063;-74
2024/01/27 08:15:13;;;;;;;0.20;0.20;;;;;;;;;;5053421;28;20562;-74
2024/01/27 08:17:39;;;;;;;0.17;0.17;;;;;;;;;;5067402;28;20242;-73
2024/01/27 08:20:05;;;;;;;0.25;0.25;;;;;;;;;;5089754;28;20028;-74
2024/01/27 08:22:31;;;;;;;0.20;0.20;;;;;;;;;;5087422;28;20020;-72
2024/01/27 08:24:57;;;;;;;0.10;0.10;;;;;;;;;;5072077;28;20020;-72
2024/01/27 08:27:22;;;;;;;0.98;0.98;;;;;;;;;;5090948;28;20519;-72
2024/01/27 08:29:48;;;;;;;0.45;0.45;;;;;;;;;;5070581;28;20028;-72
2024/01/27 08:32:14;;;;;;;0.20;0.20;;;;;;;;;;5074277;28;20472;-72
2024/01/27 08:34:39;;;;;;;0.10;0.10;;;;;;;;;;5069195;28;20032;-72
2024/01/27 08:37:14;;;;;;;0.20;0.20;;;;;;;;;;5068638;28;20040;-74
2024/01/27 08:39:39;;;;;;;0.10;0.10;;;;;;;;;;5075211;28;20503;-73
2024/01/27 08:42:05;;;;;;;0.20;0.20;;;;;;;;;;5086837;28;20106;-73
2024/01/27 08:44:31;;;;;;;0.20;0.20;;;;;;;;;;5090030;28;20044;-74
2024/01/27 08:46:56;;;;;;;2.55;2.45;;;;;;;;;;5069383;28;20489;-72
2024/01/27 08:49:22;;;;;;;0.20;0.20;;;;;;;;;;5079416;28;20051;-72
2024/01/27 08:51:47;;;;;;;0.15;0.15;;;;;;;;;;5070814;28;20020;-75
2024/01/27 08:54:13;;;;;;;0.63;0.63;;;;;;;;;;5070357;28;20126;-75
2024/01/27 08:56:39;;;;;;;0.30;0.30;;;;;;;;;;5070772;28;20032;-73
2024/01/27 08:59:05;;;;;;;0.20;0.20;;;;;;;;;;5078502;28;20085;-73
2024/01/27 09:01:30;;;;;;;0.20;0.20;;;;;;;;;;5087590;28;20382;-74
2024/01/27 09:03:56;;;;;;;0.25;0.25;;;;;;;;;;5067880;28;20051;-71
2024/01/27 09:06:22;;;;;;;0.20;0.20;;;;;;;;;;5082625;28;20490;-73
2024/01/27 09:08:47;;;;;;;1.35;0.98;;;;;;;;;;5090238;28;20024;-73
2024/01/27 09:11:38;;;;;;;0.10;0.10;;;;;;;;;;5090516;28;20102;-72
2024/01/27 09:14:07;;;;;;;2.05;1.95;;;;;;;;;;5084437;28;20040;-72
2024/01/27 09:16:32;;;;;;;0.20;0.20;;;;;;;;;;5068592;28;20364;-72
2024/01/27 09:18:58;;;;;;;0.17;0.17;;;;;;;;;;5068324;28;20020;-73
2024/01/27 09:21:28;;;;;;;0.13;0.13;;;;;;;;;;5068311;28;20025;-74
2024/01/27 09:23:57;;;;;;;1.00;1.00;;;;;;;;;;5067930;28;20083;-71
2024/01/27 09:26:23;;;;;;;1.13;1.13;;;;;;;;;;5049785;28;20029;-77
2024/01/27 09:28:54;;;;;;;0.20;0.20;;;;;;;;;;5067328;28;20102;-78
2024/01/27 09:31:21;;;;;;;0.30;0.30;;;;;;;;;;5050518;28;20037;-76
2024/01/27 09:33:48;;;;;;;0.43;0.43;;;;;;;;;;5055799;28;20403;-75
2024/01/27 09:36:14;;;;;;;0.20;0.20;;;;;;;;;;5063496;28;20056;-76
2024/01/27 09:38:39;;;;;;;0.30;0.30;;;;;;;;;;5062290;28;20033;-75
2024/01/27 09:41:05;;;;;;;0.20;0.20;;;;;;;;;;5065665;28;20025;-76
2024/01/27 09:43:31;;;;;;;0.20;0.20;;;;;;;;;;5065290;28;20108;-76
2024/01/27 09:45:57;;;;;;;0.30;0.30;;;;;;;;;;5066373;28;20021;-76
2024/01/27 09:48:23;;;;;;;0.20;0.20;;;;;;;;;;5047640;28;20028;-76
2024/01/27 09:50:49;;;;;;;0.30;0.30;;;;;;;;;;5067007;28;20366;-73
2024/01/27 09:53:15;;;;;;;0.20;0.20;;;;;;;;;;5066592;28;20690;-76
2024/01/27 09:55:41;;;;;;;1.65;0.95;;;;;;;;;;5069017;28;20012;-75
2024/01/27 09:58:08;;;;;;;0.20;0.20;;;;;;;;;;5067550;28;20039;-75
2024/01/27 10:00:35;;;;;;;0.20;0.20;;;;;;;;;;5064621;28;20142;-75
2024/01/27 10:03:01;;;;;;;0.35;0.35;;;;;;;;;;5064347;28;20056;-76
2024/01/27 10:05:27;;;;;;;0.20;0.20;;;;;;;;;;5064159;28;20029;-74
2024/01/27 10:07:53;;;;;;;0.20;0.20;;;;;;;;;;5062449;28;20472;-73
2024/01/27 10:10:18;;;;;;;0.20;0.20;;;;;;;;;;5064820;28;20073;-74
2024/01/27 10:12:45;;;;;;;0.30;0.30;;;;;;;;;;5066223;28;20048;-76
2024/01/27 10:15:20;;;;;;;0.38;0.35;;;;;;;;;;5070405;28;20041;-75
2024/01/27 10:17:46;;;;;;;0.30;0.30;;;;;;;;;;5073448;28;20506;-76
2024/01/27 10:20:15;;;;;;;0.63;0.63;;;;;;;;;;5073623;28;20091;-76
2024/01/27 10:22:41;;;;;;;0.68;0.68;;;;;;;;;;5073719;28;20077;-76
2024/01/27 10:25:08;;;;;;;0.63;0.63;;;;;;;;;;5072560;28;20047;-76
2024/01/27 10:27:34;;;;;;;2.47;1.35;;;;;;;;;;5073264;28;20028;-75
2024/01/27 10:30:00;;;;;;;0.30;0.30;;;;;;;;;;5073406;28;20103;-76
2024/01/27 10:32:25;;;;;;;0.20;0.20;;;;;;;;;;5073149;28;20112;-76
2024/01/27 10:35:04;;;;;;;8.98;2.85;;;;;;;;;;5071211;28;20024;-77
2024/01/27 10:37:30;;;;;;;0.28;0.28;;;;;;;;;;5071990;28;20056;-76
2024/01/27 10:39:59;;;;;;;0.68;0.60;;;;;;;;;;5073493;28;20038;-76
2024/01/27 10:42:25;;;;;;;0.43;0.43;;;;;;;;;;5073098;28;20028;-79
2024/01/27 10:44:52;;;;;;;0.30;0.30;;;;;;;;;;5071536;28;20032;-81
2024/01/27 10:47:20;;;;;;;0.40;0.40;;;;;;;;;;5072211;28;20396;-81
2024/01/27 10:49:47;;;;;;;1.83;1.73;;;;;;;;;;5068222;28;20488;-76
2024/01/27 10:52:14;;;;;;;0.20;0.20;;;;;;;;;;5072709;28;20069;-79
2024/01/27 10:54:41;;;;;;;0.40;0.40;;;;;;;;;;5072467;28;20029;-76
2024/01/27 10:57:07;;;;;;;0.40;0.40;;;;;;;;;;5071546;28;20025;-76
2024/01/27 10:59:34;;;;;;;0.70;0.70;;;;;;;;;;5073462;28;20028;-76
2024/01/27 11:02:00;;;;;;;0.25;0.25;;;;;;;;;;5054872;28;20056;-76
2024/01/27 11:04:28;;;;;;;0.20;0.20;;;;;;;;;;5070837;28;20484;-76
2024/01/27 11:06:55;;;;;;;0.20;0.20;;;;;;;;;;5072787;28;20148;-76
2024/01/27 11:09:21;;;;;;;2.63;2.42;;;;;;;;;;5072478;28;20028;-76
2024/01/27 11:11:47;;;;;;;0.20;0.20;;;;;;;;;;5073143;28;20029;-76
2024/01/27 11:14:13;;;;;;;0.30;0.30;;;;;;;;;;5068220;28;20033;-76
2024/01/27 11:16:47;;;;;;;0.30;0.30;;;;;;;;;;5070242;28;20032;-76
2024/01/27 11:19:13;;;;;;;0.20;0.20;;;;;;;;;;5072028;28;20016;-77
2024/01/27 11:21:39;;;;;;;1.55;0.40;;;;;;;;;;5071478;28;20020;-76
2024/01/27 11:24:13;;;;;;;0.20;0.20;;;;;;;;;;5072800;28;20082;-80
2024/01/27 11:26:39;;;;;;;0.45;0.45;;;;;;;;;;5071709;28;20028;-75
2024/01/27 11:29:19;;;;;;;5.03;0.75;;;;;;;;;;5071935;28;20529;-76
2024/01/27 11:31:45;;;;;;;0.35;0.35;;;;;;;;;;5071978;28;20124;-76
2024/01/27 11:34:19;;;;;;;0.20;0.20;;;;;;;;;;5071820;28;20037;-75
2024/01/27 11:36:45;;;;;;;0.80;0.80;;;;;;;;;;5083598;28;20047;-76
2024/01/27 11:39:26;;;;;;;0.40;0.40;;;;;;;;;;5092269;28;20111;-79
2024/01/27 11:41:53;;;;;;;1.13;0.82;;;;;;;;;;5092053;28;20027;-78
2024/01/27 11:44:20;;;;;;;1.85;0.93;;;;;;;;;;5092284;28;20099;-76
2024/01/27 11:46:46;;;;;;;0.52;0.50;;;;;;;;;;5091677;28;20115;-76
2024/01/27 11:49:15;;;;;;;0.28;0.28;;;;;;;;;;5092219;28;20032;-75
2024/01/27 11:51:41;;;;;;;;;;;;;;;;;;5075316;28;20480;-74
2024/01/27 11:54:06;;;;;;;0.30;0.30;;;;;;;;;;5096097;28;19962;-75
2024/01/27 11:56:32;;;;;;;0.82;0.65;;;;;;;;;;5094802;28;20097;-76
2024/01/27 11:58:58;;;;;;;0.60;0.60;;;;;;;;;;5092360;28;20495;-76
2024/01/27 12:01:24;;;;;;;2.28;0.57;;;;;;;;;;5092167;28;20024;-76
2024/01/27 12:03:49;;;;;;;0.30;0.30;;;;;;;;;;5091736;28;20068;-76
2024/01/27 12:06:15;;;;;;;0.63;0.50;;;;;;;;;;5091495;28;20035;-77
2024/01/27 12:08:46;;;;;;;0.65;0.52;;;;;;;;;;5092050;28;20070;-79
2024/01/27 12:11:15;;;;;;;1.15;1.05;;;;;;;;;;5091825;28;20056;-76
2024/01/27 12:13:41;;;;;;;1.02;0.93;;;;;;;;;;5091690;28;20792;-77
2024/01/27 12:16:08;;;;;;;0.20;0.20;;;;;;;;;;5091442;28;20019;-76
2024/01/27 12:18:35;;;;;;;0.52;0.43;;;;;;;;;;5073716;28;20071;-76
2024/01/27 12:21:00;;;;;;;2.65;2.45;;;;;;;;;;5091492;28;20111;-76
2024/01/27 12:23:26;;;;;;;2.20;1.15;;;;;;;;;;5072720;28;20209;-76
2024/01/27 12:25:52;;;;;;;0.43;0.40;;;;;;;;;;5089601;28;20081;-75
2024/01/27 12:28:19;;;;;;;0.30;0.30;;;;;;;;;;5070829;28;20024;-77
2024/01/27 12:30:45;;;;;;;0.30;0.30;;;;;;;;;;5068970;28;20035;-75
2024/01/27 12:33:11;;;;;;;1.38;1.02;;;;;;;;;;5089448;28;20020;-76
2024/01/27 12:35:37;;;;;;;1.00;0.88;;;;;;;;;;5087485;28;20114;-76
2024/01/27 12:38:05;;;;;;;0.80;0.80;;;;;;;;;;5087785;28;20329;-75
2024/01/27 12:40:31;;;;;;;1.75;1.27;;;;;;;;;;5090003;28;20036;-75
2024/01/27 12:42:56;;;;;;;1.85;0.77;;;;;;;;;;5090973;28;20028;-76
2024/01/27 12:45:22;;;;;;;2.45;1.45;;;;;;;;;;5091469;28;20375;-77
2024/01/27 12:47:48;;;;;;;0.47;0.47;;;;;;;;;;5091065;28;20017;-76
2024/01/27 12:50:13;;;;;;;0.88;0.88;;;;;;;;;;5090578;28;20031;-77
2024/01/27 12:52:39;;;;;;;1.80;1.27;;;;;;;;;;5072076;28;20387;-76
2024/01/27 12:55:05;;;;;;;1.30;1.00;;;;;;;;;;5070809;28;20036;-75
2024/01/27 12:57:31;;;;;;;0.22;0.22;;;;;;;;;;5089326;28;20104;-75
2024/01/27 12:59:57;;;;;;;0.40;0.40;;;;;;;;;;5071290;28;20518;-75
2024/01/27 13:02:22;;;;;;;1.70;1.65;;;;;;;;;;5088723;28;20031;-77
2024/01/27 13:04:48;;;;;;;0.28;0.28;;;;;;;;;;5071008;28;20032;-75
2024/01/27 13:07:14;;;;;;;0.60;0.47;;;;;;;;;;5088417;28;20039;-76
2024/01/27 13:09:39;;;;;;;2.20;0.75;;;;;;;;;;5090204;28;20458;-77
2024/01/27 13:12:05;;;;;;;1.05;0.95;;;;;;;;;;5090684;28;20028;-77
2024/01/27 13:14:31;;;;;;;3.13;0.77;;;;;;;;;;5090288;28;20042;-77
2024/01/27 13:16:59;;;;;;;0.43;0.43;;;;;;;;;;5090699;28;20070;-75
2024/01/27 13:19:25;;;;;;;0.65;0.63;;;;;;;;;;5090389;28;20069;-75
2024/01/27 13:21:50;;;;;;;0.47;0.47;;;;;;;;;;5072153;28;20024;-76
2024/01/27 13:24:16;;;;;;;0.70;0.70;;;;;;;;;;5090468;28;20115;-75
2024/01/27 13:26:42;;;;;;;0.45;0.45;;;;;;;;;;5090663;28;20024;-75
2024/01/27 13:29:11;;;;;;;1.33;1.15;;;;;;;;;;5090296;28;20119;-76
2024/01/27 13:31:37;;;;;;;0.35;0.35;;;;;;;;;;5090757;28;20055;-76
2024/01/27 13:34:02;;;;;;;3.97;1.80;;;;;;;;;;5090084;28;20491;-76
2024/01/27 13:36:28;;;;;;;2.00;0.43;;;;;;;;;;5089290;28;20473;-76
2024/01/27 13:38:54;;;;;;;0.25;0.25;;;;;;;;;;5090035;28;20043;-77
2024/01/27 13:41:20;;;;;;;0.30;0.30;;;;;;;;;;5072262;28;20035;-76
2024/01/27 13:43:46;;;;;;;2.13;1.92;;;;;;;;;;5072017;28;20039;-75
2024/01/27 13:46:11;;;;;;;2.13;0.85;;;;;;;;;;5089873;28;20089;-75
2024/01/27 13:48:37;;;;;;;0.98;0.98;;;;;;;;;;5089929;28;20472;-75
2024/01/27 13:51:03;;;;;;;1.67;1.58;;;;;;;;;;5089964;28;20534;-75
2024/01/27 13:53:29;;;;;;;1.20;0.85;;;;;;;;;;5090149;28;20054;-75
2024/01/27 13:55:55;;;;;;;0.30;0.30;;;;;;;;;;5089754;28;20375;-75
2024/01/27 13:58:21;;;;;;;0.47;0.47;;;;;;;;;;5089597;28;20035;-75
2024/01/27 14:00:47;;;;;;;0.50;0.50;;;;;;;;;;5089708;28;20471;-74
2024/01/27 14:03:13;;;;;;;0.40;0.40;;;;;;;;;;5089919;28;20163;-75
2024/01/27 14:05:41;;;;;;;1.33;1.23;;;;;;;;;;5089498;28;20020;-77
2024/01/27 14:08:06;;;;;;;0.40;0.40;;;;;;;;;;5071766;28;20107;-75
2024/01/27 14:10:33;;;;;;;1.30;1.25;;;;;;;;;;5088734;28;20138;-78
2024/01/27 14:12:58;;;;;;;1.38;0.90;;;;;;;;;;5069994;28;20424;-76
2024/01/27 14:15:24;;;;;;;0.60;0.60;;;;;;;;;;5081756;28;20029;-76
2024/01/27 14:17:50;;;;;;;1.00;0.70;;;;;;;;;;5089184;28;20452;-75
2024/01/27 14:20:15;;;;;;;0.50;0.50;;;;;;;;;;5086723;28;20020;-76
2024/01/27 14:22:41;;;;;;;0.40;0.40;;;;;;;;;;5067770;28;20127;-75
2024/01/27 14:25:07;;;;;;;1.70;0.80;;;;;;;;;;5089702;28;20416;-74
2024/01/27 14:27:34;;;;;;;0.35;0.35;;;;;;;;;;5082978;28;20426;-74
2024/01/27 14:30:00;;;;;;;0.40;0.40;;;;;;;;;;5071779;28;20032;-77
2024/01/27 14:32:26;;;;;;;0.30;0.30;;;;;;;;;;5067688;28;20033;-77
2024/01/27 14:34:51;;;;;;;1.08;0.98;;;;;;;;;;5074209;28;20032;-76
2024/01/27 14:37:17;;;;;;;2.95;1.45;;;;;;;;;;5087194;28;20180;-76